Marchin, Belgium
Current Conditions -  °F | °C
As of 11:50 PM on Tuesday 27 Jan 2015 (Local Time) from EBLG Reporting Station
Haze Haze  
Wind Chill: 28°   Ceiling: 2900
Heat Index: 36°   Visibility: 2.1mi
Dew Point: 34°   Wind: 10mph
Humidity: 93%   Direction: 220°SW
Pressure: 30.18"   Gusts: NA
Location:  50.47°N, 5.24°E
Report Text: EBLG 272250Z 22009KT 3400 BR FEW003 SCT010 BKN029 02/01 Q1022 TEMPO 3000 -DZ BKN003
Loading
Personal Weather Stations






























Interactive Weather Map New forecast layout! Learn more

10-Day Weather Forecast

Advertisements
Track Severe Weather on mobile